sensor_id;sensor_type;location;lat;lon;timestamp;temperature;humidity
20827;DHT22;10574;52.508;13.236;2022-12-29T00:00:21;7.60;99.90
20827;DHT22;10574;52.508;13.236;2022-12-29T00:02:49;7.70;99.90
20827;DHT22;10574;52.508;13.236;2022-12-29T00:05:17;7.70;99.90
20827;DHT22;10574;52.508;13.236;2022-12-29T00:07:44;7.80;99.90
20827;DHT22;10574;52.508;13.236;2022-12-29T00:10:12;7.80;99.90
20827;DHT22;10574;52.508;13.236;2022-12-29T00:12:40;7.80;99.90
20827;DHT22;10574;52.508;13.236;2022-12-29T00:15:25;7.80;99.90
20827;DHT22;10574;52.508;13.236;2022-12-29T00:18:06;7.80;99.90
20827;DHT22;10574;52.508;13.236;2022-12-29T00:20:35;7.80;99.90
20827;DHT22;10574;52.508;13.236;2022-12-29T00:23:22;7.80;99.90
20827;DHT22;10574;52.508;13.236;2022-12-29T00:26:17;7.90;99.90
20827;DHT22;10574;52.508;13.236;2022-12-29T00:29:03;7.90;99.90
20827;DHT22;10574;52.508;13.236;2022-12-29T00:31:49;7.90;99.90
20827;DHT22;10574;52.508;13.236;2022-12-29T00:34:34;7.90;99.90
20827;DHT22;10574;52.508;13.236;2022-12-29T00:37:20;7.90;99.90
20827;DHT22;10574;52.508;13.236;2022-12-29T00:39:49;7.90;99.90
20827;DHT22;10574;52.508;13.236;2022-12-29T00:42:35;7.90;99.90
20827;DHT22;10574;52.508;13.236;2022-12-29T00:45:21;7.90;99.90
20827;DHT22;10574;52.508;13.236;2022-12-29T00:47:49;7.90;99.90
20827;DHT22;10574;52.508;13.236;2022-12-29T00:50:16;7.90;99.90
20827;DHT22;10574;52.508;13.236;2022-12-29T00:52:44;7.90;99.90
20827;DHT22;10574;52.508;13.236;2022-12-29T00:55:12;7.90;99.90
20827;DHT22;10574;52.508;13.236;2022-12-29T00:57:39;7.90;99.90
20827;DHT22;10574;52.508;13.236;2022-12-29T01:00:08;7.90;99.90
20827;DHT22;10574;52.508;13.236;2022-12-29T01:02:38;7.90;99.90
20827;DHT22;10574;52.508;13.236;2022-12-29T01:05:05;7.90;99.90
20827;DHT22;10574;52.508;13.236;2022-12-29T01:07:33;8.00;99.90
20827;DHT22;10574;52.508;13.236;2022-12-29T01:10:01;7.90;99.90
20827;DHT22;10574;52.508;13.236;2022-12-29T01:12:38;8.00;99.90
20827;DHT22;10574;52.508;13.236;2022-12-29T01:15:12;8.00;99.90
20827;DHT22;10574;52.508;13.236;2022-12-29T01:17:40;8.00;99.90
20827;DHT22;10574;52.508;13.236;2022-12-29T01:20:08;8.10;99.90
20827;DHT22;10574;52.508;13.236;2022-12-29T01:22:37;8.10;99.90
20827;DHT22;10574;52.508;13.236;2022-12-29T01:25:06;8.20;99.90
20827;DHT22;10574;52.508;13.236;2022-12-29T01:27:34;8.20;99.90
20827;DHT22;10574;52.508;13.236;2022-12-29T01:30:01;8.20;99.90
20827;DHT22;10574;52.508;13.236;2022-12-29T01:32:29;8.20;99.90
20827;DHT22;10574;52.508;13.236;2022-12-29T01:34:57;8.20;99.90
20827;DHT22;10574;52.508;13.236;2022-12-29T01:37:24;8.20;99.90
20827;DHT22;10574;52.508;13.236;2022-12-29T01:39:52;8.10;99.90
20827;DHT22;10574;52.508;13.236;2022-12-29T01:42:22;8.10;99.90
20827;DHT22;10574;52.508;13.236;2022-12-29T01:44:53;8.10;99.90
20827;DHT22;10574;52.508;13.236;2022-12-29T01:49:54;8.10;99.90
20827;DHT22;10574;52.508;13.236;2022-12-29T01:52:24;8.00;99.90
20827;DHT22;10574;52.508;13.236;2022-12-29T01:54:53;7.90;99.90
20827;DHT22;10574;52.508;13.236;2022-12-29T01:57:25;7.90;99.90
20827;DHT22;10574;52.508;13.236;2022-12-29T02:00:06;7.90;99.90
20827;DHT22;10574;52.508;13.236;2022-12-29T02:02:31;7.80;99.90
20827;DHT22;10574;52.508;13.236;2022-12-29T02:05:01;7.70;99.90
20827;DHT22;10574;52.508;13.236;2022-12-29T02:07:29;7.80;99.90
20827;DHT22;10574;52.508;13.236;2022-12-29T02:09:57;7.70;99.90
20827;DHT22;10574;52.508;13.236;2022-12-29T02:12:25;7.70;99.90
20827;DHT22;10574;52.508;13.236;2022-12-29T02:14:58;7.70;99.90
20827;DHT22;10574;52.508;13.236;2022-12-29T02:31:43;7.90;99.90
20827;DHT22;10574;52.508;13.236;2022-12-29T02:42:34;8.00;99.90
20827;DHT22;10574;52.508;13.236;2022-12-29T02:50:40;8.30;99.90
20827;DHT22;10574;52.508;13.236;2022-12-29T02:53:16;8.30;99.90
20827;DHT22;10574;52.508;13.236;2022-12-29T02:55:49;8.40;99.90
20827;DHT22;10574;52.508;13.236;2022-12-29T02:58:21;8.50;99.90
20827;DHT22;10574;52.508;13.236;2022-12-29T03:09:31;8.70;99.90
20827;DHT22;10574;52.508;13.236;2022-12-29T03:15:01;8.80;99.90
20827;DHT22;10574;52.508;13.236;2022-12-29T03:17:51;9.00;99.90
20827;DHT22;10574;52.508;13.236;2022-12-29T03:20:24;8.90;99.90
20827;DHT22;10574;52.508;13.236;2022-12-29T03:22:53;8.90;99.90
20827;DHT22;10574;52.508;13.236;2022-12-29T03:25:28;9.00;99.90
20827;DHT22;10574;52.508;13.236;2022-12-29T03:28:12;9.00;99.90
20827;DHT22;10574;52.508;13.236;2022-12-29T03:30:42;9.10;99.90
20827;DHT22;10574;52.508;13.236;2022-12-29T03:33:14;9.10;99.90
20827;DHT22;10574;52.508;13.236;2022-12-29T03:35:43;9.10;99.90
20827;DHT22;10574;52.508;13.236;2022-12-29T03:38:15;9.10;99.90
20827;DHT22;10574;52.508;13.236;2022-12-29T03:40:45;9.10;99.90
20827;DHT22;10574;52.508;13.236;2022-12-29T03:43:13;9.10;99.90
20827;DHT22;10574;52.508;13.236;2022-12-29T03:45:41;9.20;99.90
20827;DHT22;10574;52.508;13.236;2022-12-29T03:48:09;9.30;99.90
20827;DHT22;10574;52.508;13.236;2022-12-29T03:50:37;9.20;99.90
20827;DHT22;10574;52.508;13.236;2022-12-29T03:53:04;9.20;99.90
20827;DHT22;10574;52.508;13.236;2022-12-29T03:55:32;9.20;99.90
20827;DHT22;10574;52.508;13.236;2022-12-29T03:58:00;9.30;99.90
20827;DHT22;10574;52.508;13.236;2022-12-29T04:00:27;9.40;99.90
20827;DHT22;10574;52.508;13.236;2022-12-29T04:02:56;9.30;99.90
20827;DHT22;10574;52.508;13.236;2022-12-29T04:05:23;9.40;99.90
20827;DHT22;10574;52.508;13.236;2022-12-29T04:07:51;9.40;99.90
20827;DHT22;10574;52.508;13.236;2022-12-29T04:10:19;9.40;99.90
20827;DHT22;10574;52.508;13.236;2022-12-29T04:12:46;9.40;99.90
20827;DHT22;10574;52.508;13.236;2022-12-29T04:15:14;9.40;99.90
20827;DHT22;10574;52.508;13.236;2022-12-29T04:17:42;9.40;99.90
20827;DHT22;10574;52.508;13.236;2022-12-29T04:20:09;9.40;99.90
20827;DHT22;10574;52.508;13.236;2022-12-29T04:23:05;9.50;99.90
20827;DHT22;10574;52.508;13.236;2022-12-29T04:25:33;9.50;99.90
20827;DHT22;10574;52.508;13.236;2022-12-29T04:28:01;9.50;99.90
20827;DHT22;10574;52.508;13.236;2022-12-29T04:30:29;9.50;99.90
20827;DHT22;10574;52.508;13.236;2022-12-29T04:32:57;9.50;99.90
20827;DHT22;10574;52.508;13.236;2022-12-29T04:35:24;9.50;99.90
20827;DHT22;10574;52.508;13.236;2022-12-29T04:37:52;9.50;99.90
20827;DHT22;10574;52.508;13.236;2022-12-29T04:40:19;9.50;99.90
20827;DHT22;10574;52.508;13.236;2022-12-29T04:42:47;9.60;99.90
20827;DHT22;10574;52.508;13.236;2022-12-29T04:45:15;9.50;99.90
20827;DHT22;10574;52.508;13.236;2022-12-29T04:47:42;9.60;99.90
20827;DHT22;10574;52.508;13.236;2022-12-29T04:50:11;9.50;99.90
20827;DHT22;10574;52.508;13.236;2022-12-29T04:52:39;9.50;99.90
20827;DHT22;10574;52.508;13.236;2022-12-29T04:55:07;9.50;99.90
20827;DHT22;10574;52.508;13.236;2022-12-29T04:57:37;9.60;99.90
20827;DHT22;10574;52.508;13.236;2022-12-29T05:00:06;9.60;99.90
20827;DHT22;10574;52.508;13.236;2022-12-29T05:02:36;9.60;99.90
20827;DHT22;10574;52.508;13.236;2022-12-29T05:05:04;9.60;99.90
20827;DHT22;10574;52.508;13.236;2022-12-29T05:07:32;9.60;99.90
20827;DHT22;10574;52.508;13.236;2022-12-29T05:10:00;9.60;99.90
20827;DHT22;10574;52.508;13.236;2022-12-29T05:12:31;9.60;99.90
20827;DHT22;10574;52.508;13.236;2022-12-29T05:14:59;9.60;99.90
20827;DHT22;10574;52.508;13.236;2022-12-29T05:17:29;9.70;99.90
20827;DHT22;10574;52.508;13.236;2022-12-29T05:19:57;9.70;99.90
20827;DHT22;10574;52.508;13.236;2022-12-29T05:22:25;9.70;99.90
20827;DHT22;10574;52.508;13.236;2022-12-29T05:24:52;9.70;99.90
20827;DHT22;10574;52.508;13.236;2022-12-29T05:27:20;9.70;99.90
20827;DHT22;10574;52.508;13.236;2022-12-29T05:29:47;9.70;99.90
20827;DHT22;10574;52.508;13.236;2022-12-29T05:32:15;9.80;99.90
20827;DHT22;10574;52.508;13.236;2022-12-29T05:34:43;9.80;99.90
20827;DHT22;10574;52.508;13.236;2022-12-29T05:37:10;9.80;99.90
20827;DHT22;10574;52.508;13.236;2022-12-29T05:39:38;9.90;99.90
20827;DHT22;10574;52.508;13.236;2022-12-29T05:42:05;9.80;99.90
20827;DHT22;10574;52.508;13.236;2022-12-29T05:44:33;9.90;99.90
20827;DHT22;10574;52.508;13.236;2022-12-29T05:47:00;10.00;99.90
20827;DHT22;10574;52.508;13.236;2022-12-29T05:49:28;10.00;99.90
20827;DHT22;10574;52.508;13.236;2022-12-29T05:51:56;10.10;99.90
20827;DHT22;10574;52.508;13.236;2022-12-29T05:54:23;10.10;99.90
20827;DHT22;10574;52.508;13.236;2022-12-29T05:56:51;10.10;99.90
20827;DHT22;10574;52.508;13.236;2022-12-29T05:59:38;10.10;99.90
20827;DHT22;10574;52.508;13.236;2022-12-29T06:02:05;10.10;99.90
20827;DHT22;10574;52.508;13.236;2022-12-29T06:04:34;10.10;99.90
20827;DHT22;10574;52.508;13.236;2022-12-29T06:07:01;10.10;99.90
20827;DHT22;10574;52.508;13.236;2022-12-29T06:09:29;10.20;99.90
20827;DHT22;10574;52.508;13.236;2022-12-29T06:11:57;10.20;99.90
20827;DHT22;10574;52.508;13.236;2022-12-29T06:14:25;10.20;99.90
20827;DHT22;10574;52.508;13.236;2022-12-29T06:16:52;10.20;99.90
20827;DHT22;10574;52.508;13.236;2022-12-29T06:19:20;10.30;99.90
20827;DHT22;10574;52.508;13.236;2022-12-29T06:21:48;10.20;99.90
20827;DHT22;10574;52.508;13.236;2022-12-29T06:24:16;10.20;99.90
20827;DHT22;10574;52.508;13.236;2022-12-29T06:29:24;10.30;99.90
20827;DHT22;10574;52.508;13.236;2022-12-29T06:31:51;10.30;99.90
20827;DHT22;10574;52.508;13.236;2022-12-29T06:34:21;10.30;99.90
20827;DHT22;10574;52.508;13.236;2022-12-29T06:36:49;10.30;99.90
20827;DHT22;10574;52.508;13.236;2022-12-29T06:39:16;10.40;99.90
20827;DHT22;10574;52.508;13.236;2022-12-29T06:41:44;10.40;99.90
20827;DHT22;10574;52.508;13.236;2022-12-29T06:44:12;10.40;99.90
20827;DHT22;10574;52.508;13.236;2022-12-29T06:46:40;10.40;99.90
20827;DHT22;10574;52.508;13.236;2022-12-29T06:49:08;10.40;99.90
20827;DHT22;10574;52.508;13.236;2022-12-29T06:51:35;10.40;99.90
20827;DHT22;10574;52.508;13.236;2022-12-29T06:54:03;10.40;99.90
20827;DHT22;10574;52.508;13.236;2022-12-29T06:56:31;10.40;99.90
20827;DHT22;10574;52.508;13.236;2022-12-29T06:58:59;10.40;99.90
20827;DHT22;10574;52.508;13.236;2022-12-29T07:01:27;10.40;99.90
20827;DHT22;10574;52.508;13.236;2022-12-29T07:03:55;10.40;99.90
20827;DHT22;10574;52.508;13.236;2022-12-29T07:06:23;10.30;99.90
20827;DHT22;10574;52.508;13.236;2022-12-29T07:08:50;10.30;99.90
20827;DHT22;10574;52.508;13.236;2022-12-29T07:11:21;10.20;99.90
20827;DHT22;10574;52.508;13.236;2022-12-29T07:13:49;10.20;99.90
20827;DHT22;10574;52.508;13.236;2022-12-29T07:16:17;10.20;99.90
20827;DHT22;10574;52.508;13.236;2022-12-29T07:18:45;10.20;99.90
20827;DHT22;10574;52.508;13.236;2022-12-29T07:21:13;10.20;99.90
20827;DHT22;10574;52.508;13.236;2022-12-29T07:23:41;10.20;99.90
20827;DHT22;10574;52.508;13.236;2022-12-29T07:26:11;10.20;99.90
20827;DHT22;10574;52.508;13.236;2022-12-29T07:28:39;10.20;99.90
20827;DHT22;10574;52.508;13.236;2022-12-29T07:31:17;10.20;99.90
20827;DHT22;10574;52.508;13.236;2022-12-29T07:33:46;10.20;99.90
20827;DHT22;10574;52.508;13.236;2022-12-29T07:36:15;10.20;99.90
20827;DHT22;10574;52.508;13.236;2022-12-29T07:38:43;10.20;99.90
20827;DHT22;10574;52.508;13.236;2022-12-29T07:41:11;10.10;99.90
20827;DHT22;10574;52.508;13.236;2022-12-29T07:43:39;10.10;99.90
20827;DHT22;10574;52.508;13.236;2022-12-29T07:46:07;10.10;99.90
20827;DHT22;10574;52.508;13.236;2022-12-29T07:48:36;10.10;99.90
20827;DHT22;10574;52.508;13.236;2022-12-29T07:51:04;10.10;99.90
20827;DHT22;10574;52.508;13.236;2022-12-29T07:53:33;10.20;99.90
20827;DHT22;10574;52.508;13.236;2022-12-29T07:56:00;10.20;99.90
20827;DHT22;10574;52.508;13.236;2022-12-29T07:58:28;10.20;99.90
20827;DHT22;10574;52.508;13.236;2022-12-29T08:00:56;10.20;99.90
20827;DHT22;10574;52.508;13.236;2022-12-29T08:03:26;10.20;99.90
20827;DHT22;10574;52.508;13.236;2022-12-29T08:05:53;10.20;99.90
20827;DHT22;10574;52.508;13.236;2022-12-29T08:08:21;10.20;99.90
20827;DHT22;10574;52.508;13.236;2022-12-29T08:10:49;10.20;99.90
20827;DHT22;10574;52.508;13.236;2022-12-29T08:13:17;10.30;99.90
20827;DHT22;10574;52.508;13.236;2022-12-29T08:15:45;10.30;99.90
20827;DHT22;10574;52.508;13.236;2022-12-29T08:18:12;10.30;99.90
20827;DHT22;10574;52.508;13.236;2022-12-29T08:20:40;10.30;99.90
20827;DHT22;10574;52.508;13.236;2022-12-29T08:23:08;10.30;99.90
20827;DHT22;10574;52.508;13.236;2022-12-29T08:25:36;10.30;99.90
20827;DHT22;10574;52.508;13.236;2022-12-29T08:28:03;10.20;99.90
20827;DHT22;10574;52.508;13.236;2022-12-29T08:30:31;10.20;99.90
20827;DHT22;10574;52.508;13.236;2022-12-29T08:32:59;10.20;99.90
20827;DHT22;10574;52.508;13.236;2022-12-29T08:35:27;10.20;99.90
20827;DHT22;10574;52.508;13.236;2022-12-29T08:37:54;10.20;99.90
20827;DHT22;10574;52.508;13.236;2022-12-29T08:40:22;10.20;99.90
20827;DHT22;10574;52.508;13.236;2022-12-29T08:42:51;10.30;99.90
20827;DHT22;10574;52.508;13.236;2022-12-29T08:45:18;10.30;99.90
20827;DHT22;10574;52.508;13.236;2022-12-29T08:47:46;10.30;99.90
20827;DHT22;10574;52.508;13.236;2022-12-29T08:50:14;10.30;99.90
20827;DHT22;10574;52.508;13.236;2022-12-29T08:52:41;10.30;99.90
20827;DHT22;10574;52.508;13.236;2022-12-29T08:55:09;10.40;99.90
20827;DHT22;10574;52.508;13.236;2022-12-29T08:57:37;10.40;99.90
20827;DHT22;10574;52.508;13.236;2022-12-29T09:00:05;10.50;99.90
20827;DHT22;10574;52.508;13.236;2022-12-29T09:02:33;10.50;99.90
20827;DHT22;10574;52.508;13.236;2022-12-29T09:05:01;10.50;99.90
20827;DHT22;10574;52.508;13.236;2022-12-29T09:07:29;10.60;99.90
20827;DHT22;10574;52.508;13.236;2022-12-29T09:09:57;10.60;99.90
20827;DHT22;10574;52.508;13.236;2022-12-29T09:12:24;10.60;99.90
20827;DHT22;10574;52.508;13.236;2022-12-29T09:14:52;10.60;99.90
20827;DHT22;10574;52.508;13.236;2022-12-29T09:17:20;10.70;99.90
20827;DHT22;10574;52.508;13.236;2022-12-29T09:20:06;10.70;99.90
20827;DHT22;10574;52.508;13.236;2022-12-29T09:22:35;10.70;99.90
20827;DHT22;10574;52.508;13.236;2022-12-29T09:25:04;10.80;99.90
20827;DHT22;10574;52.508;13.236;2022-12-29T09:27:31;10.90;99.90
20827;DHT22;10574;52.508;13.236;2022-12-29T09:29:59;11.00;99.90
20827;DHT22;10574;52.508;13.236;2022-12-29T09:32:27;11.00;99.90
20827;DHT22;10574;52.508;13.236;2022-12-29T09:34:55;11.10;99.90
20827;DHT22;10574;52.508;13.236;2022-12-29T09:37:23;11.10;99.90
20827;DHT22;10574;52.508;13.236;2022-12-29T09:39:51;11.20;99.90
20827;DHT22;10574;52.508;13.236;2022-12-29T09:45:27;11.20;99.90
20827;DHT22;10574;52.508;13.236;2022-12-29T09:47:55;11.20;99.90
20827;DHT22;10574;52.508;13.236;2022-12-29T09:50:30;11.30;99.90
20827;DHT22;10574;52.508;13.236;2022-12-29T09:53:14;11.40;99.90
20827;DHT22;10574;52.508;13.236;2022-12-29T09:55:41;11.50;99.90
20827;DHT22;10574;52.508;13.236;2022-12-29T10:01:23;11.60;99.90
20827;DHT22;10574;52.508;13.236;2022-12-29T10:03:54;11.70;99.90
20827;DHT22;10574;52.508;13.236;2022-12-29T10:09:11;11.60;99.90
20827;DHT22;10574;52.508;13.236;2022-12-29T10:11:55;11.60;99.90
20827;DHT22;10574;52.508;13.236;2022-12-29T10:14:43;11.60;99.90
20827;DHT22;10574;52.508;13.236;2022-12-29T10:23:31;11.70;99.90
20827;DHT22;10574;52.508;13.236;2022-12-29T10:26:00;11.80;99.90
20827;DHT22;10574;52.508;13.236;2022-12-29T10:28:40;11.90;99.90
20827;DHT22;10574;52.508;13.236;2022-12-29T10:31:17;12.00;99.90
20827;DHT22;10574;52.508;13.236;2022-12-29T10:33:50;12.10;99.90
20827;DHT22;10574;52.508;13.236;2022-12-29T10:36:28;12.20;99.90
20827;DHT22;10574;52.508;13.236;2022-12-29T10:38:58;12.40;99.90
20827;DHT22;10574;52.508;13.236;2022-12-29T10:41:41;12.50;99.90
20827;DHT22;10574;52.508;13.236;2022-12-29T10:44:09;12.60;99.90
20827;DHT22;10574;52.508;13.236;2022-12-29T10:46:37;12.70;99.90
20827;DHT22;10574;52.508;13.236;2022-12-29T10:49:08;12.60;99.90
20827;DHT22;10574;52.508;13.236;2022-12-29T10:51:38;12.60;99.90
20827;DHT22;10574;52.508;13.236;2022-12-29T10:57:05;12.50;99.90
20827;DHT22;10574;52.508;13.236;2022-12-29T10:59:35;12.50;99.90
20827;DHT22;10574;52.508;13.236;2022-12-29T11:02:31;12.50;99.90
20827;DHT22;10574;52.508;13.236;2022-12-29T11:07:32;12.50;99.90
20827;DHT22;10574;52.508;13.236;2022-12-29T11:13:00;12.40;99.90
20827;DHT22;10574;52.508;13.236;2022-12-29T11:15:39;12.40;99.90
20827;DHT22;10574;52.508;13.236;2022-12-29T11:18:19;12.40;99.90
20827;DHT22;10574;52.508;13.236;2022-12-29T11:20:50;12.40;99.90
20827;DHT22;10574;52.508;13.236;2022-12-29T11:23:40;12.40;99.90
20827;DHT22;10574;52.508;13.236;2022-12-29T11:26:22;12.40;99.90
20827;DHT22;10574;52.508;13.236;2022-12-29T11:29:17;12.30;99.90
20827;DHT22;10574;52.508;13.236;2022-12-29T11:31:48;12.20;99.90
20827;DHT22;10574;52.508;13.236;2022-12-29T11:34:22;12.20;99.90
20827;DHT22;10574;52.508;13.236;2022-12-29T11:36:58;12.20;99.90
20827;DHT22;10574;52.508;13.236;2022-12-29T11:42:17;12.00;99.90
20827;DHT22;10574;52.508;13.236;2022-12-29T11:44:49;12.00;99.90
20827;DHT22;10574;52.508;13.236;2022-12-29T11:47:27;11.90;99.90
20827;DHT22;10574;52.508;13.236;2022-12-29T11:49:58;11.80;99.90
20827;DHT22;10574;52.508;13.236;2022-12-29T11:52:28;11.70;99.90
20827;DHT22;10574;52.508;13.236;2022-12-29T11:54:58;11.70;99.90
20827;DHT22;10574;52.508;13.236;2022-12-29T11:57:28;11.70;99.90
20827;DHT22;10574;52.508;13.236;2022-12-29T11:59:56;11.60;99.90
20827;DHT22;10574;52.508;13.236;2022-12-29T12:08:00;11.30;99.90
20827;DHT22;10574;52.508;13.236;2022-12-29T12:10:30;11.00;99.90
20827;DHT22;10574;52.508;13.236;2022-12-29T12:13:02;10.80;99.90
20827;DHT22;10574;52.508;13.236;2022-12-29T12:15:39;10.70;99.90
20827;DHT22;10574;52.508;13.236;2022-12-29T12:20:56;10.60;99.90
20827;DHT22;10574;52.508;13.236;2022-12-29T12:23:47;10.50;99.90
20827;DHT22;10574;52.508;13.236;2022-12-29T12:26:21;10.50;99.90
20827;DHT22;10574;52.508;13.236;2022-12-29T12:28:55;10.50;99.90
20827;DHT22;10574;52.508;13.236;2022-12-29T12:33:58;10.50;99.90
20827;DHT22;10574;52.508;13.236;2022-12-29T12:39:32;10.50;99.90
20827;DHT22;10574;52.508;13.236;2022-12-29T12:42:23;10.50;99.90
20827;DHT22;10574;52.508;13.236;2022-12-29T12:50:03;10.50;99.90
20827;DHT22;10574;52.508;13.236;2022-12-29T12:58:02;10.50;99.90
20827;DHT22;10574;52.508;13.236;2022-12-29T13:00:28;10.50;99.90
20827;DHT22;10574;52.508;13.236;2022-12-29T13:04:00;10.50;99.90
20827;DHT22;10574;52.508;13.236;2022-12-29T13:20:00;10.70;99.90
20827;DHT22;10574;52.508;13.236;2022-12-29T13:22:46;10.70;99.90
20827;DHT22;10574;52.508;13.236;2022-12-29T13:25:32;10.70;99.90
20827;DHT22;10574;52.508;13.236;2022-12-29T13:28:15;10.70;99.90
20827;DHT22;10574;52.508;13.236;2022-12-29T13:36:05;10.50;99.90
20827;DHT22;10574;52.508;13.236;2022-12-29T13:38:36;10.60;99.90
20827;DHT22;10574;52.508;13.236;2022-12-29T13:41:08;10.60;99.90
20827;DHT22;10574;52.508;13.236;2022-12-29T13:43:39;10.60;99.90
20827;DHT22;10574;52.508;13.236;2022-12-29T13:46:14;10.60;99.90
20827;DHT22;10574;52.508;13.236;2022-12-29T13:49:06;10.60;99.90
20827;DHT22;10574;52.508;13.236;2022-12-29T13:51:25;10.50;99.90
20827;DHT22;10574;52.508;13.236;2022-12-29T13:56:42;10.50;99.90
20827;DHT22;10574;52.508;13.236;2022-12-29T14:02:03;10.50;99.90
20827;DHT22;10574;52.508;13.236;2022-12-29T14:04:32;10.40;99.90
20827;DHT22;10574;52.508;13.236;2022-12-29T14:07:12;10.40;99.90
20827;DHT22;10574;52.508;13.236;2022-12-29T14:09:51;10.30;99.90
20827;DHT22;10574;52.508;13.236;2022-12-29T14:17:44;10.30;99.90
20827;DHT22;10574;52.508;13.236;2022-12-29T14:20:22;10.30;99.90
20827;DHT22;10574;52.508;13.236;2022-12-29T14:22:59;10.30;99.90
20827;DHT22;10574;52.508;13.236;2022-12-29T14:25:58;10.30;99.90
20827;DHT22;10574;52.508;13.236;2022-12-29T14:28:46;10.30;99.90
20827;DHT22;10574;52.508;13.236;2022-12-29T14:31:04;10.30;99.90
20827;DHT22;10574;52.508;13.236;2022-12-29T14:33:33;10.30;99.90
20827;DHT22;10574;52.508;13.236;2022-12-29T14:36:25;10.30;99.90
20827;DHT22;10574;52.508;13.236;2022-12-29T14:38:53;10.40;99.90
20827;DHT22;10574;52.508;13.236;2022-12-29T14:41:40;10.40;99.90
20827;DHT22;10574;52.508;13.236;2022-12-29T14:44:14;10.50;99.90
20827;DHT22;10574;52.508;13.236;2022-12-29T14:49:26;10.60;99.90
20827;DHT22;10574;52.508;13.236;2022-12-29T14:54:49;10.70;99.90
20827;DHT22;10574;52.508;13.236;2022-12-29T14:57:36;10.80;99.90
20827;DHT22;10574;52.508;13.236;2022-12-29T15:00:34;10.80;99.90
20827;DHT22;10574;52.508;13.236;2022-12-29T15:03:04;10.90;99.90
20827;DHT22;10574;52.508;13.236;2022-12-29T15:05:47;11.00;99.90
20827;DHT22;10574;52.508;13.236;2022-12-29T15:08:17;11.00;99.90
20827;DHT22;10574;52.508;13.236;2022-12-29T15:10:54;11.10;99.90
20827;DHT22;10574;52.508;13.236;2022-12-29T15:13:24;11.10;99.90
20827;DHT22;10574;52.508;13.236;2022-12-29T15:15:55;11.00;99.90
20827;DHT22;10574;52.508;13.236;2022-12-29T15:18:30;10.70;99.90
20827;DHT22;10574;52.508;13.236;2022-12-29T15:21:05;10.60;99.90
20827;DHT22;10574;52.508;13.236;2022-12-29T15:23:34;10.40;99.90
20827;DHT22;10574;52.508;13.236;2022-12-29T15:26:04;10.40;99.90
20827;DHT22;10574;52.508;13.236;2022-12-29T15:28:44;10.30;99.90
20827;DHT22;10574;52.508;13.236;2022-12-29T15:31:23;10.30;99.90
20827;DHT22;10574;52.508;13.236;2022-12-29T15:33:54;10.30;99.90
20827;DHT22;10574;52.508;13.236;2022-12-29T15:36:28;10.20;99.90
20827;DHT22;10574;52.508;13.236;2022-12-29T15:38:56;10.20;99.90
20827;DHT22;10574;52.508;13.236;2022-12-29T15:44:15;10.10;99.90
20827;DHT22;10574;52.508;13.236;2022-12-29T15:46:42;10.00;99.90
20827;DHT22;10574;52.508;13.236;2022-12-29T15:49:13;10.00;99.90
20827;DHT22;10574;52.508;13.236;2022-12-29T15:51:41;10.00;99.90
20827;DHT22;10574;52.508;13.236;2022-12-29T15:54:18;10.00;99.90
20827;DHT22;10574;52.508;13.236;2022-12-29T15:56:48;10.00;99.90
20827;DHT22;10574;52.508;13.236;2022-12-29T15:59:28;10.10;99.90
20827;DHT22;10574;52.508;13.236;2022-12-29T16:01:57;10.10;99.90
20827;DHT22;10574;52.508;13.236;2022-12-29T16:04:30;10.10;99.90
20827;DHT22;10574;52.508;13.236;2022-12-29T16:07:02;10.20;99.90
20827;DHT22;10574;52.508;13.236;2022-12-29T16:09:35;10.30;99.90
20827;DHT22;10574;52.508;13.236;2022-12-29T16:12:16;10.30;99.90
20827;DHT22;10574;52.508;13.236;2022-12-29T16:14:50;10.30;99.90
20827;DHT22;10574;52.508;13.236;2022-12-29T16:17:23;10.30;99.90
20827;DHT22;10574;52.508;13.236;2022-12-29T16:20:04;10.30;99.90
20827;DHT22;10574;52.508;13.236;2022-12-29T16:22:38;10.30;99.90
20827;DHT22;10574;52.508;13.236;2022-12-29T16:25:16;10.30;99.90
20827;DHT22;10574;52.508;13.236;2022-12-29T16:27:43;10.30;99.90
20827;DHT22;10574;52.508;13.236;2022-12-29T16:30:25;10.40;99.90
20827;DHT22;10574;52.508;13.236;2022-12-29T16:33:03;10.30;99.90
20827;DHT22;10574;52.508;13.236;2022-12-29T16:35:29;10.50;99.90
20827;DHT22;10574;52.508;13.236;2022-12-29T16:38:14;10.50;99.90
20827;DHT22;10574;52.508;13.236;2022-12-29T16:40:57;10.50;99.90
20827;DHT22;10574;52.508;13.236;2022-12-29T16:43:33;10.50;99.90
20827;DHT22;10574;52.508;13.236;2022-12-29T16:46:11;10.60;99.90
20827;DHT22;10574;52.508;13.236;2022-12-29T16:48:34;10.50;99.90
20827;DHT22;10574;52.508;13.236;2022-12-29T16:51:21;10.50;99.90
20827;DHT22;10574;52.508;13.236;2022-12-29T16:53:55;10.50;99.90
20827;DHT22;10574;52.508;13.236;2022-12-29T16:56:21;10.50;99.90
20827;DHT22;10574;52.508;13.236;2022-12-29T16:58:52;10.40;99.90
20827;DHT22;10574;52.508;13.236;2022-12-29T17:01:22;10.40;99.90
20827;DHT22;10574;52.508;13.236;2022-12-29T17:04:00;10.40;99.90
20827;DHT22;10574;52.508;13.236;2022-12-29T17:06:27;10.50;99.90
20827;DHT22;10574;52.508;13.236;2022-12-29T17:08:56;10.50;99.90
20827;DHT22;10574;52.508;13.236;2022-12-29T17:11:34;10.50;99.90
20827;DHT22;10574;52.508;13.236;2022-12-29T17:14:48;10.50;99.90
20827;DHT22;10574;52.508;13.236;2022-12-29T17:17:21;10.50;99.90
20827;DHT22;10574;52.508;13.236;2022-12-29T17:19:51;10.60;99.90
20827;DHT22;10574;52.508;13.236;2022-12-29T17:22:23;10.60;99.90
20827;DHT22;10574;52.508;13.236;2022-12-29T17:24:52;10.70;99.90
20827;DHT22;10574;52.508;13.236;2022-12-29T17:27:41;10.60;99.90
20827;DHT22;10574;52.508;13.236;2022-12-29T17:30:15;10.70;99.90
20827;DHT22;10574;52.508;13.236;2022-12-29T17:32:59;10.70;99.90
20827;DHT22;10574;52.508;13.236;2022-12-29T17:35:27;10.70;99.90
20827;DHT22;10574;52.508;13.236;2022-12-29T17:37:55;10.70;99.90
20827;DHT22;10574;52.508;13.236;2022-12-29T17:40:32;10.70;99.90
20827;DHT22;10574;52.508;13.236;2022-12-29T17:43:02;10.70;99.90
20827;DHT22;10574;52.508;13.236;2022-12-29T17:45:31;10.70;99.90
20827;DHT22;10574;52.508;13.236;2022-12-29T17:47:59;10.70;99.90
20827;DHT22;10574;52.508;13.236;2022-12-29T17:50:32;10.70;99.90
20827;DHT22;10574;52.508;13.236;2022-12-29T17:53:02;10.70;99.90
20827;DHT22;10574;52.508;13.236;2022-12-29T17:55:33;10.70;99.90
20827;DHT22;10574;52.508;13.236;2022-12-29T17:58:07;10.70;99.90
20827;DHT22;10574;52.508;13.236;2022-12-29T18:00:30;10.60;99.90
20827;DHT22;10574;52.508;13.236;2022-12-29T18:02:58;10.60;99.90